sensor_id;sensor_type;location;lat;lon;timestamp;P1;durP1;ratioP1;P2;durP2;ratioP2
16826;SDS011;8530;49.540;8.576;2023-04-25T00:00:54;6.13;;;5.53;;
16826;SDS011;8530;49.540;8.576;2023-04-25T00:03:21;8.03;;;6.00;;
16826;SDS011;8530;49.540;8.576;2023-04-25T00:05:50;5.97;;;5.27;;
16826;SDS011;8530;49.540;8.576;2023-04-25T00:08:18;6.80;;;6.20;;
16826;SDS011;8530;49.540;8.576;2023-04-25T00:10:45;7.17;;;5.20;;
16826;SDS011;8530;49.540;8.576;2023-04-25T00:13:12;6.60;;;6.00;;
16826;SDS011;8530;49.540;8.576;2023-04-25T00:15:39;6.50;;;5.87;;
16826;SDS011;8530;49.540;8.576;2023-04-25T00:18:06;6.70;;;6.00;;
16826;SDS011;8530;49.540;8.576;2023-04-25T00:20:33;10.10;;;7.50;;
16826;SDS011;8530;49.540;8.576;2023-04-25T00:23:01;7.97;;;6.30;;
16826;SDS011;8530;49.540;8.576;2023-04-25T00:25:29;7.20;;;6.50;;
16826;SDS011;8530;49.540;8.576;2023-04-25T00:27:55;6.80;;;5.90;;
16826;SDS011;8530;49.540;8.576;2023-04-25T00:30:22;9.13;;;7.43;;
16826;SDS011;8530;49.540;8.576;2023-04-25T00:32:49;8.33;;;6.50;;
16826;SDS011;8530;49.540;8.576;2023-04-25T00:35:15;6.40;;;5.70;;
16826;SDS011;8530;49.540;8.576;2023-04-25T00:37:42;8.20;;;6.33;;
16826;SDS011;8530;49.540;8.576;2023-04-25T00:40:09;9.53;;;7.50;;
16826;SDS011;8530;49.540;8.576;2023-04-25T00:42:37;9.00;;;6.77;;
16826;SDS011;8530;49.540;8.576;2023-04-25T00:45:05;9.70;;;7.23;;
16826;SDS011;8530;49.540;8.576;2023-04-25T00:47:36;7.00;;;6.33;;
16826;SDS011;8530;49.540;8.576;2023-04-25T00:50:03;7.77;;;6.90;;
16826;SDS011;8530;49.540;8.576;2023-04-25T00:52:30;7.03;;;6.33;;
16826;SDS011;8530;49.540;8.576;2023-04-25T00:54:57;10.37;;;6.50;;
16826;SDS011;8530;49.540;8.576;2023-04-25T00:57:24;8.53;;;6.30;;
16826;SDS011;8530;49.540;8.576;2023-04-25T00:59:53;9.53;;;7.10;;
16826;SDS011;8530;49.540;8.576;2023-04-25T01:02:20;8.50;;;7.57;;
16826;SDS011;8530;49.540;8.576;2023-04-25T01:04:47;6.50;;;5.47;;
16826;SDS011;8530;49.540;8.576;2023-04-25T01:07:14;8.13;;;6.30;;
16826;SDS011;8530;49.540;8.576;2023-04-25T01:09:41;7.00;;;6.30;;
16826;SDS011;8530;49.540;8.576;2023-04-25T01:12:08;8.77;;;7.23;;
16826;SDS011;8530;49.540;8.576;2023-04-25T01:14:35;7.50;;;6.70;;
16826;SDS011;8530;49.540;8.576;2023-04-25T01:17:03;7.70;;;6.80;;
16826;SDS011;8530;49.540;8.576;2023-04-25T01:19:30;9.23;;;6.97;;
16826;SDS011;8530;49.540;8.576;2023-04-25T01:21:58;7.90;;;7.10;;
16826;SDS011;8530;49.540;8.576;2023-04-25T01:24:25;8.87;;;7.93;;
16826;SDS011;8530;49.540;8.576;2023-04-25T01:26:51;8.57;;;7.17;;
16826;SDS011;8530;49.540;8.576;2023-04-25T01:29:21;13.13;;;6.97;;
16826;SDS011;8530;49.540;8.576;2023-04-25T01:31:50;9.47;;;7.70;;
16826;SDS011;8530;49.540;8.576;2023-04-25T01:34:18;9.30;;;8.30;;
16826;SDS011;8530;49.540;8.576;2023-04-25T01:36:45;8.60;;;7.70;;
16826;SDS011;8530;49.540;8.576;2023-04-25T01:39:14;8.90;;;8.00;;
16826;SDS011;8530;49.540;8.576;2023-04-25T01:41:41;8.60;;;7.70;;
16826;SDS011;8530;49.540;8.576;2023-04-25T01:44:08;8.87;;;8.00;;
16826;SDS011;8530;49.540;8.576;2023-04-25T01:46:35;8.90;;;7.87;;
16826;SDS011;8530;49.540;8.576;2023-04-25T01:49:02;11.80;;;8.90;;
16826;SDS011;8530;49.540;8.576;2023-04-25T01:51:29;9.23;;;8.30;;
16826;SDS011;8530;49.540;8.576;2023-04-25T01:53:56;9.60;;;7.90;;
16826;SDS011;8530;49.540;8.576;2023-04-25T01:56:25;10.53;;;8.80;;
16826;SDS011;8530;49.540;8.576;2023-04-25T01:58:55;9.43;;;8.43;;
16826;SDS011;8530;49.540;8.576;2023-04-25T02:01:22;10.13;;;8.40;;
16826;SDS011;8530;49.540;8.576;2023-04-25T02:03:49;12.17;;;8.73;;
16826;SDS011;8530;49.540;8.576;2023-04-25T02:06:15;9.70;;;8.80;;
16826;SDS011;8530;49.540;8.576;2023-04-25T02:08:42;11.00;;;9.07;;
16826;SDS011;8530;49.540;8.576;2023-04-25T02:11:09;9.80;;;8.63;;
16826;SDS011;8530;49.540;8.576;2023-04-25T02:13:37;8.50;;;7.70;;
16826;SDS011;8530;49.540;8.576;2023-04-25T02:16:04;9.73;;;8.27;;
16826;SDS011;8530;49.540;8.576;2023-04-25T02:18:31;13.10;;;8.30;;
16826;SDS011;8530;49.540;8.576;2023-04-25T02:20:58;9.30;;;8.40;;
16826;SDS011;8530;49.540;8.576;2023-04-25T02:23:26;8.93;;;8.00;;
16826;SDS011;8530;49.540;8.576;2023-04-25T02:25:52;9.67;;;8.53;;
16826;SDS011;8530;49.540;8.576;2023-04-25T02:28:20;9.77;;;8.77;;
16826;SDS011;8530;49.540;8.576;2023-04-25T02:30:48;9.23;;;8.20;;
16826;SDS011;8530;49.540;8.576;2023-04-25T02:33:14;12.30;;;9.10;;
16826;SDS011;8530;49.540;8.576;2023-04-25T02:35:42;9.30;;;7.60;;
16826;SDS011;8530;49.540;8.576;2023-04-25T02:38:08;10.47;;;8.00;;
16826;SDS011;8530;49.540;8.576;2023-04-25T02:40:35;8.80;;;7.90;;
16826;SDS011;8530;49.540;8.576;2023-04-25T02:43:02;10.33;;;9.33;;
16826;SDS011;8530;49.540;8.576;2023-04-25T02:45:28;14.67;;;9.70;;
16826;SDS011;8530;49.540;8.576;2023-04-25T02:47:56;9.60;;;8.60;;
16826;SDS011;8530;49.540;8.576;2023-04-25T02:50:23;10.43;;;9.40;;
16826;SDS011;8530;49.540;8.576;2023-04-25T02:55:50;11.00;;;9.90;;
16826;SDS011;8530;49.540;8.576;2023-04-25T02:58:17;11.77;;;9.77;;
16826;SDS011;8530;49.540;8.576;2023-04-25T03:00:44;12.90;;;11.47;;
16826;SDS011;8530;49.540;8.576;2023-04-25T03:03:12;13.90;;;11.10;;
16826;SDS011;8530;49.540;8.576;2023-04-25T03:05:39;15.47;;;11.93;;
16826;SDS011;8530;49.540;8.576;2023-04-25T03:08:06;16.93;;;11.93;;
16826;SDS011;8530;49.540;8.576;2023-04-25T03:10:33;13.20;;;11.80;;
16826;SDS011;8530;49.540;8.576;2023-04-25T03:12:59;22.10;;;11.63;;
16826;SDS011;8530;49.540;8.576;2023-04-25T03:15:26;12.87;;;11.60;;
16826;SDS011;8530;49.540;8.576;2023-04-25T03:17:53;12.60;;;11.13;;
16826;SDS011;8530;49.540;8.576;2023-04-25T03:20:21;14.00;;;11.93;;
16826;SDS011;8530;49.540;8.576;2023-04-25T03:22:48;13.27;;;11.90;;
16826;SDS011;8530;49.540;8.576;2023-04-25T03:25:15;14.33;;;12.80;;
16826;SDS011;8530;49.540;8.576;2023-04-25T03:27:42;16.07;;;12.50;;
16826;SDS011;8530;49.540;8.576;2023-04-25T03:30:09;15.97;;;12.60;;
16826;SDS011;8530;49.540;8.576;2023-04-25T03:32:36;12.23;;;10.93;;
16826;SDS011;8530;49.540;8.576;2023-04-25T03:35:03;15.20;;;13.70;;
16826;SDS011;8530;49.540;8.576;2023-04-25T03:37:31;18.40;;;13.67;;
16826;SDS011;8530;49.540;8.576;2023-04-25T03:39:58;14.10;;;12.60;;
16826;SDS011;8530;49.540;8.576;2023-04-25T03:42:25;13.03;;;11.20;;
16826;SDS011;8530;49.540;8.576;2023-04-25T03:44:51;15.23;;;11.93;;
16826;SDS011;8530;49.540;8.576;2023-04-25T03:47:18;16.70;;;12.33;;
16826;SDS011;8530;49.540;8.576;2023-04-25T03:49:45;14.50;;;12.80;;
16826;SDS011;8530;49.540;8.576;2023-04-25T03:52:11;13.90;;;12.33;;
16826;SDS011;8530;49.540;8.576;2023-04-25T03:54:39;14.00;;;12.60;;
16826;SDS011;8530;49.540;8.576;2023-04-25T03:57:06;14.63;;;12.40;;
16826;SDS011;8530;49.540;8.576;2023-04-25T03:59:33;11.90;;;10.70;;
16826;SDS011;8530;49.540;8.576;2023-04-25T04:01:59;13.97;;;12.57;;
16826;SDS011;8530;49.540;8.576;2023-04-25T04:04:26;14.80;;;13.27;;
16826;SDS011;8530;49.540;8.576;2023-04-25T04:06:53;13.00;;;11.73;;
16826;SDS011;8530;49.540;8.576;2023-04-25T04:09:20;13.53;;;12.13;;
16826;SDS011;8530;49.540;8.576;2023-04-25T04:11:48;15.00;;;12.63;;
16826;SDS011;8530;49.540;8.576;2023-04-25T04:14:14;15.70;;;12.93;;
16826;SDS011;8530;49.540;8.576;2023-04-25T04:16:41;15.13;;;13.63;;
16826;SDS011;8530;49.540;8.576;2023-04-25T04:19:08;15.57;;;13.83;;
16826;SDS011;8530;49.540;8.576;2023-04-25T04:21:35;15.77;;;13.40;;
16826;SDS011;8530;49.540;8.576;2023-04-25T04:24:01;17.70;;;13.93;;
16826;SDS011;8530;49.540;8.576;2023-04-25T04:26:28;14.83;;;13.33;;
16826;SDS011;8530;49.540;8.576;2023-04-25T04:28:58;15.10;;;13.50;;
16826;SDS011;8530;49.540;8.576;2023-04-25T04:31:25;15.63;;;13.23;;
16826;SDS011;8530;49.540;8.576;2023-04-25T04:33:51;14.13;;;12.33;;
16826;SDS011;8530;49.540;8.576;2023-04-25T04:36:18;18.83;;;13.67;;
16826;SDS011;8530;49.540;8.576;2023-04-25T04:38:46;13.93;;;12.43;;
16826;SDS011;8530;49.540;8.576;2023-04-25T04:41:13;15.10;;;12.00;;
16826;SDS011;8530;49.540;8.576;2023-04-25T04:43:40;18.03;;;13.90;;
16826;SDS011;8530;49.540;8.576;2023-04-25T04:46:09;15.07;;;12.60;;
16826;SDS011;8530;49.540;8.576;2023-04-25T04:48:37;17.70;;;12.80;;
16826;SDS011;8530;49.540;8.576;2023-04-25T04:51:05;15.90;;;12.57;;
16826;SDS011;8530;49.540;8.576;2023-04-25T04:53:32;14.03;;;12.57;;
16826;SDS011;8530;49.540;8.576;2023-04-25T04:55:58;14.40;;;13.00;;
16826;SDS011;8530;49.540;8.576;2023-04-25T04:58:25;13.47;;;12.17;;
16826;SDS011;8530;49.540;8.576;2023-04-25T05:00:54;15.37;;;13.77;;
16826;SDS011;8530;49.540;8.576;2023-04-25T05:03:22;16.37;;;13.30;;
16826;SDS011;8530;49.540;8.576;2023-04-25T05:05:49;15.90;;;12.80;;
16826;SDS011;8530;49.540;8.576;2023-04-25T05:08:15;17.60;;;12.20;;
16826;SDS011;8530;49.540;8.576;2023-04-25T05:10:42;16.03;;;12.63;;
16826;SDS011;8530;49.540;8.576;2023-04-25T05:13:09;17.53;;;14.60;;
16826;SDS011;8530;49.540;8.576;2023-04-25T05:15:35;20.93;;;15.07;;
16826;SDS011;8530;49.540;8.576;2023-04-25T05:18:02;21.93;;;15.03;;
16826;SDS011;8530;49.540;8.576;2023-04-25T05:20:30;15.27;;;13.77;;
16826;SDS011;8530;49.540;8.576;2023-04-25T05:22:57;16.70;;;14.90;;
16826;SDS011;8530;49.540;8.576;2023-04-25T05:25:24;16.20;;;14.40;;
16826;SDS011;8530;49.540;8.576;2023-04-25T05:27:50;18.93;;;15.87;;
16826;SDS011;8530;49.540;8.576;2023-04-25T05:30:17;17.10;;;14.30;;
16826;SDS011;8530;49.540;8.576;2023-04-25T05:32:44;16.60;;;13.83;;
16826;SDS011;8530;49.540;8.576;2023-04-25T05:35:11;17.17;;;14.50;;
16826;SDS011;8530;49.540;8.576;2023-04-25T05:37:39;18.60;;;15.47;;
16826;SDS011;8530;49.540;8.576;2023-04-25T05:40:07;16.10;;;14.40;;
16826;SDS011;8530;49.540;8.576;2023-04-25T05:42:35;17.33;;;15.53;;
16826;SDS011;8530;49.540;8.576;2023-04-25T05:45:01;17.80;;;15.30;;
16826;SDS011;8530;49.540;8.576;2023-04-25T05:47:28;17.43;;;15.33;;
16826;SDS011;8530;49.540;8.576;2023-04-25T05:49:55;20.27;;;17.00;;
16826;SDS011;8530;49.540;8.576;2023-04-25T05:52:22;17.57;;;14.77;;
16826;SDS011;8530;49.540;8.576;2023-04-25T05:54:50;19.97;;;15.27;;
16826;SDS011;8530;49.540;8.576;2023-04-25T05:57:20;18.33;;;16.47;;
16826;SDS011;8530;49.540;8.576;2023-04-25T05:59:48;16.43;;;14.83;;
16826;SDS011;8530;49.540;8.576;2023-04-25T06:02:15;14.83;;;13.23;;
16826;SDS011;8530;49.540;8.576;2023-04-25T06:04:41;15.17;;;12.23;;
16826;SDS011;8530;49.540;8.576;2023-04-25T06:07:08;15.27;;;12.87;;
16826;SDS011;8530;49.540;8.576;2023-04-25T06:09:35;16.80;;;13.50;;
16826;SDS011;8530;49.540;8.576;2023-04-25T06:12:05;18.07;;;15.27;;
16826;SDS011;8530;49.540;8.576;2023-04-25T06:14:32;16.20;;;12.90;;
16826;SDS011;8530;49.540;8.576;2023-04-25T06:16:59;17.27;;;13.70;;
16826;SDS011;8530;49.540;8.576;2023-04-25T06:19:31;11.37;;;10.17;;
16826;SDS011;8530;49.540;8.576;2023-04-25T06:21:58;13.77;;;10.73;;
16826;SDS011;8530;49.540;8.576;2023-04-25T06:24:24;17.57;;;10.60;;
16826;SDS011;8530;49.540;8.576;2023-04-25T06:26:51;12.70;;;9.80;;
16826;SDS011;8530;49.540;8.576;2023-04-25T06:29:19;12.07;;;10.57;;
16826;SDS011;8530;49.540;8.576;2023-04-25T06:31:46;13.70;;;10.77;;
16826;SDS011;8530;49.540;8.576;2023-04-25T06:34:12;15.33;;;10.83;;
16826;SDS011;8530;49.540;8.576;2023-04-25T06:36:40;11.07;;;9.87;;
16826;SDS011;8530;49.540;8.576;2023-04-25T06:39:06;15.40;;;11.17;;
16826;SDS011;8530;49.540;8.576;2023-04-25T06:41:33;17.70;;;10.90;;
16826;SDS011;8530;49.540;8.576;2023-04-25T06:44:00;14.73;;;10.50;;
16826;SDS011;8530;49.540;8.576;2023-04-25T06:46:28;19.27;;;10.17;;
16826;SDS011;8530;49.540;8.576;2023-04-25T06:48:55;11.80;;;9.80;;
16826;SDS011;8530;49.540;8.576;2023-04-25T06:51:21;23.20;;;10.77;;
16826;SDS011;8530;49.540;8.576;2023-04-25T06:53:49;12.10;;;9.07;;
16826;SDS011;8530;49.540;8.576;2023-04-25T06:56:16;17.43;;;10.20;;
16826;SDS011;8530;49.540;8.576;2023-04-25T06:58:42;10.20;;;8.27;;
16826;SDS011;8530;49.540;8.576;2023-04-25T07:01:09;15.43;;;9.10;;
16826;SDS011;8530;49.540;8.576;2023-04-25T07:03:37;10.97;;;7.50;;
16826;SDS011;8530;49.540;8.576;2023-04-25T07:06:04;18.77;;;9.47;;
16826;SDS011;8530;49.540;8.576;2023-04-25T07:08:31;22.33;;;8.30;;
16826;SDS011;8530;49.540;8.576;2023-04-25T07:10:57;13.43;;;8.60;;
16826;SDS011;8530;49.540;8.576;2023-04-25T07:13:24;14.43;;;8.30;;
16826;SDS011;8530;49.540;8.576;2023-04-25T07:15:51;16.17;;;7.87;;
16826;SDS011;8530;49.540;8.576;2023-04-25T07:18:18;14.93;;;8.63;;
16826;SDS011;8530;49.540;8.576;2023-04-25T07:20:46;9.13;;;7.90;;
16826;SDS011;8530;49.540;8.576;2023-04-25T07:23:12;19.63;;;10.53;;
16826;SDS011;8530;49.540;8.576;2023-04-25T07:25:39;14.30;;;9.23;;
16826;SDS011;8530;49.540;8.576;2023-04-25T07:28:06;12.10;;;8.97;;
16826;SDS011;8530;49.540;8.576;2023-04-25T07:30:32;18.60;;;9.80;;
16826;SDS011;8530;49.540;8.576;2023-04-25T07:33:00;16.77;;;8.63;;
16826;SDS011;8530;49.540;8.576;2023-04-25T07:35:26;19.70;;;8.80;;
16826;SDS011;8530;49.540;8.576;2023-04-25T07:37:54;20.83;;;9.90;;
16826;SDS011;8530;49.540;8.576;2023-04-25T07:40:21;14.77;;;9.27;;
16826;SDS011;8530;49.540;8.576;2023-04-25T07:42:48;14.43;;;8.90;;
16826;SDS011;8530;49.540;8.576;2023-04-25T07:45:14;17.03;;;8.47;;
16826;SDS011;8530;49.540;8.576;2023-04-25T07:47:41;10.10;;;7.80;;
16826;SDS011;8530;49.540;8.576;2023-04-25T07:50:08;12.33;;;7.33;;
16826;SDS011;8530;49.540;8.576;2023-04-25T07:52:35;11.00;;;7.57;;
16826;SDS011;8530;49.540;8.576;2023-04-25T07:55:04;13.37;;;7.40;;
16826;SDS011;8530;49.540;8.576;2023-04-25T07:57:31;12.93;;;7.23;;
16826;SDS011;8530;49.540;8.576;2023-04-25T07:59:58;13.50;;;6.87;;
16826;SDS011;8530;49.540;8.576;2023-04-25T08:02:26;11.07;;;6.60;;
16826;SDS011;8530;49.540;8.576;2023-04-25T08:04:53;10.87;;;7.13;;
16826;SDS011;8530;49.540;8.576;2023-04-25T08:07:20;15.10;;;6.70;;
16826;SDS011;8530;49.540;8.576;2023-04-25T08:09:46;11.33;;;5.97;;
16826;SDS011;8530;49.540;8.576;2023-04-25T08:12:14;14.23;;;5.60;;
16826;SDS011;8530;49.540;8.576;2023-04-25T08:14:41;6.53;;;4.77;;
16826;SDS011;8530;49.540;8.576;2023-04-25T08:17:08;8.50;;;5.70;;
16826;SDS011;8530;49.540;8.576;2023-04-25T08:19:35;9.37;;;5.27;;
16826;SDS011;8530;49.540;8.576;2023-04-25T08:22:05;9.57;;;5.63;;
16826;SDS011;8530;49.540;8.576;2023-04-25T08:24:32;11.87;;;4.97;;
16826;SDS011;8530;49.540;8.576;2023-04-25T08:26:59;9.23;;;4.70;;
16826;SDS011;8530;49.540;8.576;2023-04-25T08:29:27;4.93;;;4.30;;
16826;SDS011;8530;49.540;8.576;2023-04-25T08:31:54;15.63;;;6.10;;
16826;SDS011;8530;49.540;8.576;2023-04-25T08:34:20;12.87;;;5.80;;
16826;SDS011;8530;49.540;8.576;2023-04-25T08:36:47;13.57;;;5.57;;
16826;SDS011;8530;49.540;8.576;2023-04-25T08:39:14;7.93;;;5.23;;
16826;SDS011;8530;49.540;8.576;2023-04-25T08:41:41;8.17;;;4.60;;
16826;SDS011;8530;49.540;8.576;2023-04-25T08:44:09;8.40;;;5.60;;
16826;SDS011;8530;49.540;8.576;2023-04-25T08:46:38;10.60;;;4.40;;
16826;SDS011;8530;49.540;8.576;2023-04-25T08:49:05;12.33;;;6.00;;
16826;SDS011;8530;49.540;8.576;2023-04-25T08:51:34;9.17;;;5.30;;
16826;SDS011;8530;49.540;8.576;2023-04-25T08:54:07;12.40;;;4.63;;
16826;SDS011;8530;49.540;8.576;2023-04-25T08:56:36;10.67;;;5.13;;
16826;SDS011;8530;49.540;8.576;2023-04-25T08:59:03;12.07;;;4.30;;
16826;SDS011;8530;49.540;8.576;2023-04-25T09:01:32;7.57;;;5.57;;
16826;SDS011;8530;49.540;8.576;2023-04-25T09:04:01;5.43;;;4.33;;
16826;SDS011;8530;49.540;8.576;2023-04-25T09:06:28;15.40;;;5.40;;
16826;SDS011;8530;49.540;8.576;2023-04-25T09:08:55;17.40;;;6.40;;
16826;SDS011;8530;49.540;8.576;2023-04-25T09:11:28;10.70;;;5.17;;
16826;SDS011;8530;49.540;8.576;2023-04-25T09:14:09;12.90;;;4.57;;
16826;SDS011;8530;49.540;8.576;2023-04-25T09:16:47;11.63;;;5.53;;
16826;SDS011;8530;49.540;8.576;2023-04-25T09:19:29;8.27;;;5.23;;
16826;SDS011;8530;49.540;8.576;2023-04-25T09:21:57;8.47;;;5.43;;
16826;SDS011;8530;49.540;8.576;2023-04-25T09:24:34;10.20;;;5.33;;
16826;SDS011;8530;49.540;8.576;2023-04-25T09:27:05;12.60;;;5.37;;
16826;SDS011;8530;49.540;8.576;2023-04-25T09:29:33;8.73;;;5.03;;
16826;SDS011;8530;49.540;8.576;2023-04-25T09:32:15;11.80;;;4.67;;
16826;SDS011;8530;49.540;8.576;2023-04-25T09:34:46;13.10;;;5.73;;
16826;SDS011;8530;49.540;8.576;2023-04-25T09:37:17;10.83;;;4.93;;
16826;SDS011;8530;49.540;8.576;2023-04-25T09:39:45;8.93;;;5.40;;
16826;SDS011;8530;49.540;8.576;2023-04-25T09:42:12;8.00;;;5.13;;
16826;SDS011;8530;49.540;8.576;2023-04-25T09:44:41;13.83;;;4.93;;
16826;SDS011;8530;49.540;8.576;2023-04-25T09:47:10;12.50;;;5.20;;
16826;SDS011;8530;49.540;8.576;2023-04-25T09:49:39;13.83;;;5.50;;
16826;SDS011;8530;49.540;8.576;2023-04-25T09:52:09;10.90;;;5.20;;
16826;SDS011;8530;49.540;8.576;2023-04-25T09:54:39;13.90;;;5.67;;
16826;SDS011;8530;49.540;8.576;2023-04-25T09:57:08;7.60;;;4.30;;
16826;SDS011;8530;49.540;8.576;2023-04-25T09:59:38;12.97;;;5.93;;
16826;SDS011;8530;49.540;8.576;2023-04-25T10:02:08;6.53;;;4.53;;
16826;SDS011;8530;49.540;8.576;2023-04-25T10:04:36;11.23;;;4.70;;
16826;SDS011;8530;49.540;8.576;2023-04-25T10:07:05;7.67;;;5.13;;
16826;SDS011;8530;49.540;8.576;2023-04-25T10:09:35;11.57;;;5.17;;
16826;SDS011;8530;49.540;8.576;2023-04-25T10:12:04;8.40;;;5.00;;
16826;SDS011;8530;49.540;8.576;2023-04-25T10:14:32;13.50;;;5.60;;
16826;SDS011;8530;49.540;8.576;2023-04-25T10:16:59;14.77;;;5.30;;
16826;SDS011;8530;49.540;8.576;2023-04-25T10:19:27;9.90;;;4.73;;
16826;SDS011;8530;49.540;8.576;2023-04-25T10:21:56;12.87;;;5.47;;
16826;SDS011;8530;49.540;8.576;2023-04-25T10:24:29;8.27;;;5.20;;
16826;SDS011;8530;49.540;8.576;2023-04-25T10:26:57;9.70;;;4.97;;
16826;SDS011;8530;49.540;8.576;2023-04-25T10:29:25;8.13;;;4.90;;
16826;SDS011;8530;49.540;8.576;2023-04-25T10:31:52;10.77;;;5.27;;
16826;SDS011;8530;49.540;8.576;2023-04-25T10:34:19;14.23;;;5.20;;
16826;SDS011;8530;49.540;8.576;2023-04-25T10:36:50;9.67;;;5.50;;
16826;SDS011;8530;49.540;8.576;2023-04-25T10:39:21;7.77;;;5.47;;
16826;SDS011;8530;49.540;8.576;2023-04-25T10:41:53;9.50;;;6.27;;
16826;SDS011;8530;49.540;8.576;2023-04-25T10:44:23;9.80;;;5.47;;
16826;SDS011;8530;49.540;8.576;2023-04-25T10:46:54;11.30;;;5.13;;
16826;SDS011;8530;49.540;8.576;2023-04-25T10:49:28;6.60;;;4.93;;
16826;SDS011;8530;49.540;8.576;2023-04-25T10:54:54;7.57;;;4.80;;
16826;SDS011;8530;49.540;8.576;2023-04-25T10:57:32;5.23;;;4.17;;
16826;SDS011;8530;49.540;8.576;2023-04-25T11:00:08;8.00;;;3.50;;
16826;SDS011;8530;49.540;8.576;2023-04-25T11:02:38;5.93;;;3.63;;
16826;SDS011;8530;49.540;8.576;2023-04-25T11:05:08;6.07;;;3.57;;
16826;SDS011;8530;49.540;8.576;2023-04-25T11:07:37;7.27;;;3.57;;
16826;SDS011;8530;49.540;8.576;2023-04-25T11:10:09;5.70;;;3.47;;
16826;SDS011;8530;49.540;8.576;2023-04-25T11:12:36;4.43;;;3.27;;
16826;SDS011;8530;49.540;8.576;2023-04-25T11:15:04;5.33;;;3.60;;
16826;SDS011;8530;49.540;8.576;2023-04-25T11:17:34;8.73;;;3.80;;
16826;SDS011;8530;49.540;8.576;2023-04-25T11:20:01;6.07;;;3.60;;
16826;SDS011;8530;49.540;8.576;2023-04-25T11:22:31;6.30;;;3.10;;
16826;SDS011;8530;49.540;8.576;2023-04-25T11:24:58;12.93;;;4.80;;
16826;SDS011;8530;49.540;8.576;2023-04-25T11:27:29;10.27;;;4.90;;
16826;SDS011;8530;49.540;8.576;2023-04-25T11:29:56;5.00;;;3.50;;
16826;SDS011;8530;49.540;8.576;2023-04-25T11:32:23;14.00;;;3.77;;
16826;SDS011;8530;49.540;8.576;2023-04-25T11:34:52;3.77;;;3.00;;
16826;SDS011;8530;49.540;8.576;2023-04-25T11:37:18;6.50;;;4.00;;
16826;SDS011;8530;49.540;8.576;2023-04-25T11:39:46;5.80;;;4.23;;
16826;SDS011;8530;49.540;8.576;2023-04-25T11:42:13;26.47;;;5.30;;
16826;SDS011;8530;49.540;8.576;2023-04-25T11:44:40;4.67;;;4.00;;
16826;SDS011;8530;49.540;8.576;2023-04-25T11:47:07;8.40;;;4.67;;
16826;SDS011;8530;49.540;8.576;2023-04-25T11:49:34;15.00;;;4.83;;
16826;SDS011;8530;49.540;8.576;2023-04-25T11:52:02;6.07;;;4.37;;
16826;SDS011;8530;49.540;8.576;2023-04-25T11:54:34;7.10;;;4.40;;
16826;SDS011;8530;49.540;8.576;2023-04-25T11:57:01;9.13;;;3.70;;
16826;SDS011;8530;49.540;8.576;2023-04-25T11:59:28;7.57;;;4.63;;
16826;SDS011;8530;49.540;8.576;2023-04-25T12:01:55;6.97;;;5.60;;
16826;SDS011;8530;49.540;8.576;2023-04-25T12:04:23;8.30;;;4.40;;
16826;SDS011;8530;49.540;8.576;2023-04-25T12:06:51;9.00;;;5.80;;
16826;SDS011;8530;49.540;8.576;2023-04-25T12:09:20;3.87;;;3.47;;
16826;SDS011;8530;49.540;8.576;2023-04-25T12:11:54;7.10;;;4.27;;
16826;SDS011;8530;49.540;8.576;2023-04-25T12:14:23;6.60;;;4.70;;
16826;SDS011;8530;49.540;8.576;2023-04-25T12:16:51;7.53;;;5.00;;
16826;SDS011;8530;49.540;8.576;2023-04-25T12:19:20;7.50;;;4.67;;
16826;SDS011;8530;49.540;8.576;2023-04-25T12:21:48;6.33;;;4.83;;
16826;SDS011;8530;49.540;8.576;2023-04-25T12:24:15;6.07;;;4.43;;
16826;SDS011;8530;49.540;8.576;2023-04-25T12:26:48;6.17;;;4.70;;
16826;SDS011;8530;49.540;8.576;2023-04-25T12:29:17;5.70;;;4.37;;
16826;SDS011;8530;49.540;8.576;2023-04-25T12:31:45;10.10;;;5.63;;
16826;SDS011;8530;49.540;8.576;2023-04-25T12:34:12;7.20;;;3.70;;
16826;SDS011;8530;49.540;8.576;2023-04-25T12:36:39;6.60;;;4.57;;
16826;SDS011;8530;49.540;8.576;2023-04-25T12:39:06;7.73;;;4.77;;
16826;SDS011;8530;49.540;8.576;2023-04-25T12:41:33;6.40;;;4.30;;
16826;SDS011;8530;49.540;8.576;2023-04-25T12:44:01;4.60;;;4.07;;
16826;SDS011;8530;49.540;8.576;2023-04-25T12:46:28;6.30;;;4.13;;
16826;SDS011;8530;49.540;8.576;2023-04-25T12:48:54;6.27;;;4.23;;
16826;SDS011;8530;49.540;8.576;2023-04-25T12:51:22;6.10;;;4.80;;
16826;SDS011;8530;49.540;8.576;2023-04-25T12:53:50;5.90;;;4.70;;
16826;SDS011;8530;49.540;8.576;2023-04-25T12:56:17;8.43;;;4.83;;
16826;SDS011;8530;49.540;8.576;2023-04-25T12:58:44;7.13;;;5.60;;
16826;SDS011;8530;49.540;8.576;2023-04-25T13:01:12;7.90;;;5.53;;
16826;SDS011;8530;49.540;8.576;2023-04-25T13:03:39;5.70;;;5.00;;
16826;SDS011;8530;49.540;8.576;2023-04-25T13:06:06;8.00;;;5.30;;
16826;SDS011;8530;49.540;8.576;2023-04-25T13:08:33;6.93;;;4.33;;
16826;SDS011;8530;49.540;8.576;2023-04-25T13:11:02;6.27;;;4.57;;
16826;SDS011;8530;49.540;8.576;2023-04-25T13:13:29;4.70;;;3.90;;
16826;SDS011;8530;49.540;8.576;2023-04-25T13:15:56;11.33;;;4.70;;
16826;SDS011;8530;49.540;8.576;2023-04-25T13:18:24;8.13;;;4.93;;
16826;SDS011;8530;49.540;8.576;2023-04-25T13:20:51;6.27;;;5.23;;
16826;SDS011;8530;49.540;8.576;2023-04-25T13:23:18;5.93;;;4.60;;
16826;SDS011;8530;49.540;8.576;2023-04-25T13:25:45;6.27;;;4.43;;
16826;SDS011;8530;49.540;8.576;2023-04-25T13:28:12;6.97;;;5.27;;
16826;SDS011;8530;49.540;8.576;2023-04-25T13:30:39;6.23;;;4.07;;
16826;SDS011;8530;49.540;8.576;2023-04-25T13:33:06;9.23;;;4.90;;
16826;SDS011;8530;49.540;8.576;2023-04-25T13:35:35;10.13;;;5.73;;
16826;SDS011;8530;49.540;8.576;2023-04-25T13:38:02;8.67;;;3.83;;
16826;SDS011;8530;49.540;8.576;2023-04-25T13:40:29;12.80;;;5.07;;
16826;SDS011;8530;49.540;8.576;2023-04-25T13:42:57;8.23;;;5.03;;
16826;SDS011;8530;49.540;8.576;2023-04-25T13:45:24;11.80;;;5.47;;
16826;SDS011;8530;49.540;8.576;2023-04-25T13:47:51;10.23;;;4.93;;
16826;SDS011;8530;49.540;8.576;2023-04-25T13:50:18;9.43;;;4.60;;
16826;SDS011;8530;49.540;8.576;2023-04-25T13:52:46;7.67;;;4.33;;
16826;SDS011;8530;49.540;8.576;2023-04-25T13:55:13;7.47;;;4.63;;
16826;SDS011;8530;49.540;8.576;2023-04-25T13:57:40;11.47;;;5.97;;
16826;SDS011;8530;49.540;8.576;2023-04-25T14:00:07;8.37;;;4.60;;
16826;SDS011;8530;49.540;8.576;2023-04-25T14:02:35;9.50;;;4.40;;
16826;SDS011;8530;49.540;8.576;2023-04-25T14:05:02;9.57;;;5.07;;
16826;SDS011;8530;49.540;8.576;2023-04-25T14:07:29;7.33;;;4.60;;
16826;SDS011;8530;49.540;8.576;2023-04-25T14:09:57;6.77;;;4.77;;
16826;SDS011;8530;49.540;8.576;2023-04-25T14:12:24;9.20;;;4.27;;
16826;SDS011;8530;49.540;8.576;2023-04-25T14:14:51;6.60;;;4.40;;
16826;SDS011;8530;49.540;8.576;2023-04-25T14:17:18;5.20;;;4.40;;
16826;SDS011;8530;49.540;8.576;2023-04-25T14:19:45;8.23;;;4.40;;
16826;SDS011;8530;49.540;8.576;2023-04-25T14:22:13;10.23;;;4.07;;
16826;SDS011;8530;49.540;8.576;2023-04-25T14:24:39;5.27;;;3.90;;
16826;SDS011;8530;49.540;8.576;2023-04-25T14:27:11;6.90;;;4.27;;
16826;SDS011;8530;49.540;8.576;2023-04-25T14:29:37;7.87;;;3.93;;
16826;SDS011;8530;49.540;8.576;2023-04-25T14:32:04;10.20;;;4.87;;
16826;SDS011;8530;49.540;8.576;2023-04-25T14:34:31;8.10;;;4.30;;
16826;SDS011;8530;49.540;8.576;2023-04-25T14:36:58;6.90;;;4.37;;
16826;SDS011;8530;49.540;8.576;2023-04-25T14:39:25;9.97;;;4.07;;
16826;SDS011;8530;49.540;8.576;2023-04-25T14:41:52;5.70;;;4.60;;
16826;SDS011;8530;49.540;8.576;2023-04-25T14:44:20;22.67;;;5.07;;
16826;SDS011;8530;49.540;8.576;2023-04-25T14:46:46;10.80;;;4.47;;
16826;SDS011;8530;49.540;8.576;2023-04-25T14:49:17;8.77;;;4.60;;
16826;SDS011;8530;49.540;8.576;2023-04-25T14:51:44;4.90;;;4.10;;
16826;SDS011;8530;49.540;8.576;2023-04-25T14:54:11;13.13;;;4.67;;
16826;SDS011;8530;49.540;8.576;2023-04-25T14:56:38;6.00;;;3.80;;
16826;SDS011;8530;49.540;8.576;2023-04-25T14:59:04;3.87;;;3.47;;